createdAt,value
2022-12-02T00:00:54.541Z,2.90
2022-12-02T00:03:22.350Z,2.90
2022-12-02T00:05:50.892Z,2.90
2022-12-02T00:08:22.068Z,3.00
2022-12-02T00:10:49.785Z,3.00
2022-12-02T00:13:23.349Z,3.00
2022-12-02T00:16:00.823Z,3.00
2022-12-02T00:18:27.895Z,3.00
2022-12-02T00:20:55.165Z,3.00
2022-12-02T00:23:23.308Z,3.00
2022-12-02T00:25:53.840Z,2.90
2022-12-02T00:28:20.913Z,2.90
2022-12-02T00:30:50.801Z,2.90
2022-12-02T00:33:18.616Z,2.90
2022-12-02T00:35:47.071Z,3.00
2022-12-02T00:38:14.162Z,2.90
2022-12-02T00:40:40.953Z,2.90
2022-12-02T00:43:26.455Z,2.80
2022-12-02T00:46:13.208Z,2.80
2022-12-02T00:48:40.243Z,2.80
2022-12-02T00:51:07.024Z,2.80
2022-12-02T00:53:33.817Z,2.80
2022-12-02T00:56:00.744Z,2.80
2022-12-02T00:58:30.624Z,2.70
2022-12-02T01:01:00.892Z,2.60
2022-12-02T01:03:27.773Z,2.60
2022-12-02T01:05:54.519Z,2.60
2022-12-02T01:08:25.420Z,2.60
2022-12-02T01:10:52.240Z,2.60
2022-12-02T01:13:19.477Z,2.60
2022-12-02T01:15:47.581Z,2.60
2022-12-02T01:18:14.362Z,2.60
2022-12-02T01:20:41.559Z,2.50
2022-12-02T01:23:14.350Z,2.60
2022-12-02T01:25:41.468Z,2.60
2022-12-02T01:28:08.341Z,2.60
2022-12-02T01:30:35.157Z,2.60
2022-12-02T01:33:02.990Z,2.60
2022-12-02T01:35:29.786Z,2.60
2022-12-02T01:37:56.646Z,2.50
2022-12-02T01:40:23.696Z,2.50
2022-12-02T01:42:50.508Z,2.50
2022-12-02T01:45:17.566Z,2.50
2022-12-02T01:47:44.484Z,2.40
2022-12-02T01:50:12.070Z,2.40
2022-12-02T01:52:38.932Z,2.40
2022-12-02T01:55:07.477Z,2.50
2022-12-02T01:57:34.217Z,2.50
2022-12-02T02:00:01.315Z,2.50
2022-12-02T02:02:38.780Z,2.50
2022-12-02T02:05:05.722Z,2.60
2022-12-02T02:07:34.647Z,2.50
2022-12-02T02:10:01.482Z,2.50
2022-12-02T02:12:28.593Z,2.50
2022-12-02T02:14:56.600Z,2.50
2022-12-02T02:17:23.501Z,2.50
2022-12-02T02:19:50.508Z,2.40
2022-12-02T02:22:40.686Z,2.30
2022-12-02T02:25:16.155Z,2.30
2022-12-02T02:27:51.485Z,2.40
2022-12-02T02:30:18.650Z,2.40
2022-12-02T02:32:46.271Z,2.50
2022-12-02T02:35:14.407Z,2.40
2022-12-02T02:37:41.503Z,2.50
2022-12-02T02:40:10.140Z,2.40
2022-12-02T02:42:38.151Z,2.40
2022-12-02T02:45:05.273Z,2.40
2022-12-02T02:47:32.195Z,2.40
2022-12-02T02:49:59.019Z,2.40
2022-12-02T02:52:26.250Z,2.40
2022-12-02T02:54:53.395Z,2.30
2022-12-02T02:57:20.423Z,2.30
2022-12-02T02:59:51.232Z,2.30
2022-12-02T03:02:18.226Z,2.30
2022-12-02T03:04:45.293Z,2.40
2022-12-02T03:07:12.979Z,2.40
2022-12-02T03:09:40.240Z,2.40
2022-12-02T03:12:08.231Z,2.40
2022-12-02T03:14:35.236Z,2.40
2022-12-02T03:17:02.608Z,2.30
2022-12-02T03:19:30.949Z,2.40
2022-12-02T03:21:59.192Z,2.40
2022-12-02T03:24:26.079Z,2.40
2022-12-02T03:26:53.136Z,2.40
2022-12-02T03:29:20.540Z,2.40
2022-12-02T03:31:47.485Z,2.40
2022-12-02T03:34:14.538Z,2.40
2022-12-02T03:36:42.380Z,2.40
2022-12-02T03:39:10.364Z,2.40
2022-12-02T03:41:37.661Z,2.50
2022-12-02T03:44:05.728Z,2.50
2022-12-02T03:46:33.002Z,2.40
2022-12-02T03:49:01.299Z,2.40
2022-12-02T03:51:28.283Z,2.40
2022-12-02T03:53:55.338Z,2.40
2022-12-02T03:56:22.171Z,2.30
2022-12-02T03:58:50.411Z,2.30
2022-12-02T04:01:17.768Z,2.30
2022-12-02T04:03:44.586Z,2.30
2022-12-02T04:06:11.850Z,2.30
2022-12-02T04:08:38.814Z,2.30
2022-12-02T04:11:15.842Z,2.30
2022-12-02T04:13:42.664Z,2.30
2022-12-02T04:16:09.543Z,2.30
2022-12-02T04:18:36.462Z,2.20
2022-12-02T04:21:03.793Z,2.30
2022-12-02T04:23:30.592Z,2.30
2022-12-02T04:25:58.465Z,2.20
2022-12-02T04:28:25.281Z,2.20
2022-12-02T04:30:52.224Z,2.20
2022-12-02T04:33:19.102Z,2.20
2022-12-02T04:35:46.004Z,2.20
2022-12-02T04:38:13.963Z,2.10
2022-12-02T04:40:41.028Z,2.20
2022-12-02T04:43:09.893Z,2.20
2022-12-02T04:45:36.918Z,2.10
2022-12-02T04:48:04.171Z,2.10
2022-12-02T04:50:30.948Z,2.10
2022-12-02T04:52:57.748Z,2.10
2022-12-02T04:55:24.585Z,2.10
2022-12-02T04:57:51.850Z,2.10
2022-12-02T05:00:18.885Z,2.10
2022-12-02T05:02:45.714Z,2.10
2022-12-02T05:05:12.527Z,2.10
2022-12-02T05:07:39.319Z,2.10
2022-12-02T05:10:06.559Z,2.10
2022-12-02T05:12:33.303Z,2.10
2022-12-02T05:15:00.318Z,2.10
2022-12-02T05:17:30.976Z,2.10
2022-12-02T05:19:58.666Z,2.10
2022-12-02T05:22:25.527Z,2.10
2022-12-02T05:24:52.750Z,2.10
2022-12-02T05:27:19.789Z,2.10
2022-12-02T05:29:46.565Z,2.10
2022-12-02T05:32:13.446Z,2.20
2022-12-02T05:34:40.275Z,2.10
2022-12-02T05:37:08.207Z,2.10
2022-12-02T05:39:34.976Z,2.10
2022-12-02T05:42:02.958Z,2.00
2022-12-02T05:44:33.846Z,2.10
2022-12-02T05:47:15.965Z,2.10
2022-12-02T05:49:43.469Z,2.10
2022-12-02T05:52:23.097Z,2.10
2022-12-02T05:54:54.823Z,2.00
2022-12-02T05:57:27.957Z,2.10
2022-12-02T06:00:16.265Z,2.10
2022-12-02T06:02:48.262Z,2.10
2022-12-02T06:05:15.350Z,2.10
2022-12-02T06:07:42.250Z,2.10
2022-12-02T06:10:22.193Z,2.20
2022-12-02T06:12:49.314Z,2.10
2022-12-02T06:15:16.211Z,2.10
2022-12-02T06:17:43.054Z,2.10
2022-12-02T06:20:15.514Z,2.00
2022-12-02T06:23:14.222Z,2.10
2022-12-02T06:25:42.641Z,2.10
2022-12-02T06:28:22.830Z,2.10
2022-12-02T06:30:50.852Z,2.10
2022-12-02T06:33:26.433Z,2.10
2022-12-02T06:35:54.011Z,2.10
2022-12-02T06:38:31.051Z,2.00
2022-12-02T06:41:11.022Z,2.00
2022-12-02T06:43:37.921Z,2.10
2022-12-02T06:46:07.637Z,2.10
2022-12-02T06:48:38.461Z,2.00
2022-12-02T06:51:18.977Z,2.00
2022-12-02T06:53:46.371Z,2.10
2022-12-02T06:56:13.139Z,2.10
2022-12-02T06:58:41.829Z,2.00
2022-12-02T07:01:20.993Z,2.00
2022-12-02T07:04:00.632Z,2.00
2022-12-02T07:06:28.627Z,2.00
2022-12-02T07:09:18.172Z,2.10
2022-12-02T07:11:51.577Z,2.10
2022-12-02T07:14:18.544Z,2.10
2022-12-02T07:16:46.518Z,2.10
2022-12-02T07:19:15.567Z,2.10
2022-12-02T07:21:42.823Z,2.10
2022-12-02T07:24:14.750Z,2.10
2022-12-02T07:26:42.507Z,2.10
2022-12-02T07:29:15.877Z,2.20
2022-12-02T07:31:44.573Z,2.10
2022-12-02T07:34:14.837Z,2.10
2022-12-02T07:36:41.703Z,2.20
2022-12-02T07:39:11.429Z,2.20
2022-12-02T07:41:41.875Z,2.20
2022-12-02T07:44:08.921Z,2.20
2022-12-02T07:46:36.779Z,2.20
2022-12-02T07:49:04.809Z,2.20
2022-12-02T07:51:31.797Z,2.20
2022-12-02T07:53:58.651Z,2.20
2022-12-02T07:56:25.760Z,2.10
2022-12-02T08:01:40.284Z,2.10
2022-12-02T08:04:07.560Z,2.10
2022-12-02T08:06:38.988Z,2.10
2022-12-02T08:09:08.779Z,2.10
2022-12-02T08:11:37.166Z,2.10
2022-12-02T08:14:05.640Z,2.10
2022-12-02T08:16:33.102Z,2.10
2022-12-02T08:19:01.318Z,2.20
2022-12-02T08:21:28.960Z,2.10
2022-12-02T08:23:55.935Z,2.10
2022-12-02T08:26:22.882Z,2.10
2022-12-02T08:28:53.933Z,2.10
2022-12-02T08:31:25.538Z,2.20
2022-12-02T08:33:52.442Z,2.20
2022-12-02T08:36:20.538Z,2.10
2022-12-02T08:38:47.851Z,2.20
2022-12-02T08:41:15.254Z,2.20
2022-12-02T08:43:44.499Z,2.30
2022-12-02T08:46:11.393Z,2.30
2022-12-02T08:48:38.218Z,2.30
2022-12-02T08:51:05.138Z,2.30
2022-12-02T08:53:32.116Z,2.30
2022-12-02T08:55:58.976Z,2.40
2022-12-02T08:58:26.842Z,2.40
2022-12-02T09:00:53.705Z,2.40
2022-12-02T09:03:20.551Z,2.30
2022-12-02T09:05:48.317Z,2.30
2022-12-02T09:08:15.356Z,2.40
2022-12-02T09:10:42.321Z,2.40
2022-12-02T09:13:09.146Z,2.40
2022-12-02T09:15:37.161Z,2.40
2022-12-02T09:18:04.163Z,2.40
2022-12-02T09:20:30.984Z,2.40
2022-12-02T09:22:57.981Z,2.50
2022-12-02T09:25:25.927Z,2.50
2022-12-02T09:27:52.918Z,2.50
2022-12-02T09:30:19.964Z,2.50
2022-12-02T09:32:51.532Z,2.50
2022-12-02T09:35:18.346Z,2.50
2022-12-02T09:37:45.223Z,2.50
2022-12-02T09:40:13.481Z,2.50
2022-12-02T09:42:40.467Z,2.50
2022-12-02T09:45:10.963Z,2.60
2022-12-02T09:47:37.825Z,2.60
2022-12-02T09:50:05.226Z,2.60
2022-12-02T09:52:36.250Z,2.70
2022-12-02T09:55:10.983Z,2.70
2022-12-02T09:57:40.626Z,2.70
2022-12-02T10:00:18.660Z,2.60
2022-12-02T10:02:46.713Z,2.50
2022-12-02T10:05:15.987Z,2.50
2022-12-02T10:07:45.180Z,2.50
2022-12-02T10:10:16.492Z,2.60
2022-12-02T10:12:45.728Z,2.60
2022-12-02T10:15:16.715Z,2.60
2022-12-02T10:17:44.408Z,2.60
2022-12-02T10:20:17.414Z,2.70
2022-12-02T10:23:02.979Z,2.70
2022-12-02T10:25:30.931Z,2.70
2022-12-02T10:27:57.963Z,2.60
2022-12-02T10:30:33.912Z,2.70
2022-12-02T10:33:06.403Z,2.70
2022-12-02T10:35:45.959Z,2.70
2022-12-02T10:38:29.444Z,2.70
2022-12-02T10:41:11.571Z,2.70
2022-12-02T10:43:38.571Z,2.80
2022-12-02T10:46:05.571Z,2.80
2022-12-02T10:48:32.340Z,2.80
2022-12-02T10:50:59.719Z,2.80
2022-12-02T10:53:28.194Z,2.90
2022-12-02T10:55:56.071Z,2.90
2022-12-02T10:58:25.920Z,2.90
2022-12-02T11:00:52.870Z,2.90
2022-12-02T11:03:24.034Z,2.90
2022-12-02T11:05:52.104Z,2.90
2022-12-02T11:08:19.796Z,2.90
2022-12-02T11:10:48.131Z,2.90
2022-12-02T11:13:17.908Z,2.90
2022-12-02T11:15:50.793Z,2.90
2022-12-02T11:18:26.877Z,3.00
2022-12-02T11:21:13.992Z,3.00
2022-12-02T11:23:40.954Z,3.00
2022-12-02T11:26:09.606Z,3.10
2022-12-02T11:28:37.902Z,3.10
2022-12-02T11:31:10.977Z,3.00
2022-12-02T11:33:47.447Z,2.90
2022-12-02T11:36:17.584Z,3.00
2022-12-02T11:38:47.379Z,2.90
2022-12-02T11:41:14.724Z,2.90
2022-12-02T11:43:50.883Z,3.00
2022-12-02T11:46:21.930Z,3.00
2022-12-02T11:48:55.355Z,3.00
2022-12-02T11:51:32.149Z,3.00
2022-12-02T11:54:00.550Z,3.00
2022-12-02T11:56:29.130Z,3.00
2022-12-02T11:58:56.152Z,3.00
2022-12-02T12:01:23.539Z,3.00
2022-12-02T12:03:52.437Z,2.90
2022-12-02T12:06:20.572Z,2.90
2022-12-02T12:08:51.864Z,2.80
2022-12-02T12:11:18.696Z,2.80
2022-12-02T12:14:04.903Z,2.70
2022-12-02T12:16:33.693Z,2.80
2022-12-02T12:19:24.086Z,2.80
2022-12-02T12:21:54.120Z,2.90
2022-12-02T12:24:27.005Z,3.00
2022-12-02T12:26:55.225Z,3.00
2022-12-02T12:29:23.359Z,3.00
2022-12-02T12:31:50.300Z,2.90
2022-12-02T12:34:19.244Z,2.90
2022-12-02T12:36:46.652Z,2.90
2022-12-02T12:39:14.318Z,2.90
2022-12-02T12:44:30.672Z,3.00
2022-12-02T12:47:23.608Z,3.10
2022-12-02T12:49:50.871Z,3.20
2022-12-02T12:52:17.914Z,3.10
2022-12-02T12:54:50.807Z,3.00
2022-12-02T12:57:25.262Z,3.00
2022-12-02T12:59:57.821Z,2.90
2022-12-02T13:02:50.660Z,2.90
2022-12-02T13:05:17.979Z,2.90
2022-12-02T13:08:12.653Z,3.00
2022-12-02T13:10:44.054Z,3.00
2022-12-02T13:13:21.159Z,3.10
2022-12-02T13:15:48.296Z,3.10
2022-12-02T13:18:15.328Z,3.10
2022-12-02T13:20:42.097Z,3.00
2022-12-02T13:23:09.116Z,3.00
2022-12-02T13:25:36.912Z,3.00
2022-12-02T13:28:04.254Z,3.00
2022-12-02T13:30:31.345Z,3.00
2022-12-02T13:32:58.111Z,3.10
2022-12-02T13:35:25.397Z,3.10
2022-12-02T13:37:52.212Z,3.20
2022-12-02T13:40:19.417Z,3.10
2022-12-02T13:42:46.296Z,3.10
2022-12-02T13:45:13.156Z,3.10
2022-12-02T13:47:40.298Z,3.10
2022-12-02T13:50:07.405Z,3.10
2022-12-02T13:52:34.209Z,3.00
2022-12-02T13:55:01.028Z,3.10
2022-12-02T13:57:27.829Z,3.00
2022-12-02T13:59:54.547Z,2.90
2022-12-02T14:02:22.527Z,2.90
2022-12-02T14:04:49.602Z,2.90
2022-12-02T14:07:16.666Z,3.00
2022-12-02T14:09:44.088Z,2.90
2022-12-02T14:12:12.938Z,2.90
2022-12-02T14:14:39.900Z,2.90
2022-12-02T14:17:06.794Z,2.90
2022-12-02T14:19:33.742Z,2.90
2022-12-02T14:22:00.640Z,2.90
2022-12-02T14:24:27.390Z,3.00
2022-12-02T14:26:54.105Z,3.00
2022-12-02T14:29:20.882Z,3.00
2022-12-02T14:31:48.869Z,3.00
2022-12-02T14:34:15.672Z,3.00
2022-12-02T14:36:42.996Z,3.00
2022-12-02T14:39:10.241Z,3.00
2022-12-02T14:41:36.992Z,3.00
2022-12-02T14:44:03.772Z,3.10
2022-12-02T14:46:30.905Z,3.10
2022-12-02T14:49:23.129Z,3.10
2022-12-02T14:51:45.051Z,3.10
2022-12-02T14:54:11.801Z,3.10
2022-12-02T14:56:38.521Z,3.10
2022-12-02T14:59:09.555Z,3.10
2022-12-02T15:01:39.519Z,3.20
2022-12-02T15:04:08.367Z,3.10
2022-12-02T15:06:36.299Z,3.10
2022-12-02T15:09:03.916Z,3.10
2022-12-02T15:11:30.736Z,3.00
2022-12-02T15:13:57.551Z,3.10
2022-12-02T15:16:27.529Z,3.00
2022-12-02T15:18:54.419Z,3.00
2022-12-02T15:21:21.208Z,3.10
2022-12-02T15:23:48.025Z,3.00
2022-12-02T15:26:14.934Z,3.10
2022-12-02T15:28:41.862Z,3.00
2022-12-02T15:31:08.679Z,3.00
2022-12-02T15:33:35.603Z,3.00
2022-12-02T15:36:02.362Z,3.10
2022-12-02T15:38:29.933Z,3.10
2022-12-02T15:40:57.239Z,3.00
2022-12-02T15:43:24.222Z,2.90
2022-12-02T15:45:51.031Z,2.90
2022-12-02T15:48:17.886Z,3.00
2022-12-02T15:50:44.795Z,3.00
2022-12-02T15:53:11.650Z,3.00
2022-12-02T15:55:38.630Z,2.90
2022-12-02T15:58:05.427Z,3.00
2022-12-02T16:00:32.516Z,3.00
2022-12-02T16:02:59.326Z,3.00
2022-12-02T16:05:26.214Z,3.00
2022-12-02T16:07:53.221Z,3.00
2022-12-02T16:10:20.017Z,3.00
2022-12-02T16:12:46.897Z,3.00
2022-12-02T16:15:13.666Z,3.00
2022-12-02T16:17:40.567Z,3.00
2022-12-02T16:20:07.705Z,3.00
2022-12-02T16:22:35.342Z,3.00
2022-12-02T16:25:02.204Z,3.00
2022-12-02T16:27:29.118Z,3.10
2022-12-02T16:30:00.805Z,3.00
2022-12-02T16:32:27.583Z,3.10
2022-12-02T16:34:54.742Z,3.20
2022-12-02T16:37:22.758Z,3.10
2022-12-02T16:39:49.936Z,3.10
2022-12-02T16:42:16.870Z,3.20
2022-12-02T16:44:43.789Z,3.10
2022-12-02T16:47:10.873Z,3.20
2022-12-02T16:49:37.748Z,3.20
2022-12-02T16:52:14.461Z,3.20
2022-12-02T16:54:41.442Z,3.20
2022-12-02T16:57:08.434Z,3.20
2022-12-02T16:59:35.287Z,3.20
2022-12-02T17:02:04.038Z,3.20
2022-12-02T17:04:30.951Z,3.20
2022-12-02T17:06:57.728Z,3.20
2022-12-02T17:09:24.528Z,3.20
2022-12-02T17:11:51.809Z,3.20
2022-12-02T17:14:18.602Z,3.20
2022-12-02T17:16:45.480Z,3.20
2022-12-02T17:19:12.345Z,3.20
2022-12-02T17:21:39.327Z,3.20
2022-12-02T17:24:06.305Z,3.30
2022-12-02T17:26:33.111Z,3.30
2022-12-02T17:28:59.901Z,3.30
2022-12-02T17:31:26.857Z,3.30
2022-12-02T17:33:53.676Z,3.30
2022-12-02T17:36:20.494Z,3.30
2022-12-02T17:38:57.323Z,3.30
2022-12-02T17:41:25.036Z,3.30
2022-12-02T17:43:52.493Z,3.30
2022-12-02T17:46:19.688Z,3.30
2022-12-02T17:48:46.889Z,3.30
2022-12-02T17:51:13.967Z,3.30
2022-12-02T17:53:40.974Z,3.30
2022-12-02T17:56:08.237Z,3.30
2022-12-02T17:58:35.311Z,3.40
2022-12-02T18:01:07.699Z,3.30
2022-12-02T18:03:37.986Z,3.30
2022-12-02T18:06:06.246Z,3.30
2022-12-02T18:08:33.320Z,3.30
2022-12-02T18:11:01.540Z,3.30
2022-12-02T18:13:28.668Z,3.40
2022-12-02T18:15:55.493Z,3.30
2022-12-02T18:18:22.379Z,3.30
2022-12-02T18:20:49.164Z,3.30
2022-12-02T18:23:15.966Z,3.40
2022-12-02T18:25:42.760Z,3.40
2022-12-02T18:28:09.761Z,3.40
2022-12-02T18:30:36.721Z,3.40
2022-12-02T18:33:07.237Z,3.40
2022-12-02T18:35:36.804Z,3.40
2022-12-02T18:38:03.859Z,3.40
2022-12-02T18:40:30.765Z,3.40
2022-12-02T18:42:57.637Z,3.40
2022-12-02T18:45:24.426Z,3.40
2022-12-02T18:47:51.238Z,3.40
2022-12-02T18:50:18.293Z,3.40
2022-12-02T18:52:45.080Z,3.40
2022-12-02T18:55:13.240Z,3.40
2022-12-02T18:57:40.144Z,3.40
2022-12-02T19:00:08.388Z,3.40
2022-12-02T19:02:35.454Z,3.40
2022-12-02T19:05:02.313Z,3.40
2022-12-02T19:07:29.172Z,3.40
2022-12-02T19:09:56.067Z,3.40
2022-12-02T19:12:23.241Z,3.40
2022-12-02T19:14:50.396Z,3.30
2022-12-02T19:17:17.456Z,3.40
2022-12-02T19:19:47.626Z,3.40
2022-12-02T19:22:14.595Z,3.30
2022-12-02T19:24:41.534Z,3.40
2022-12-02T19:27:08.450Z,3.40
2022-12-02T19:29:38.047Z,3.40
2022-12-02T19:32:04.981Z,3.40
2022-12-02T19:34:32.107Z,3.40
2022-12-02T19:36:59.228Z,3.50
2022-12-02T19:39:26.109Z,3.40
2022-12-02T19:41:53.050Z,3.50
2022-12-02T19:44:19.996Z,3.50
2022-12-02T19:46:47.421Z,3.50
2022-12-02T19:49:17.488Z,3.50
2022-12-02T19:51:44.364Z,3.50
2022-12-02T19:54:11.691Z,3.50
2022-12-02T19:56:38.605Z,3.50
2022-12-02T19:59:05.412Z,3.50
2022-12-02T20:01:38.571Z,3.50
2022-12-02T20:04:33.260Z,3.50
2022-12-02T20:06:56.188Z,3.60
2022-12-02T20:09:26.064Z,3.60
2022-12-02T20:11:53.089Z,3.60
2022-12-02T20:14:20.308Z,3.60
2022-12-02T20:16:47.224Z,3.60
2022-12-02T20:19:14.066Z,3.60
2022-12-02T20:21:40.888Z,3.60
2022-12-02T20:24:07.943Z,3.60
2022-12-02T20:26:34.746Z,3.70
2022-12-02T20:29:01.568Z,3.70
2022-12-02T20:31:28.551Z,3.70
2022-12-02T20:33:55.407Z,3.80
2022-12-02T20:36:22.268Z,3.80
2022-12-02T20:38:49.309Z,3.80
2022-12-02T20:41:16.648Z,3.80
2022-12-02T20:43:43.602Z,3.90
2022-12-02T20:46:13.312Z,3.90
2022-12-02T20:48:40.114Z,3.80
2022-12-02T20:51:06.853Z,3.80
2022-12-02T20:53:33.766Z,3.80
2022-12-02T20:56:00.850Z,3.80
2022-12-02T20:58:27.830Z,3.80
2022-12-02T21:00:54.663Z,3.90
2022-12-02T21:03:21.529Z,3.90
2022-12-02T21:05:48.346Z,3.80
2022-12-02T21:08:15.229Z,3.80
2022-12-02T21:10:42.069Z,3.90
2022-12-02T21:13:08.854Z,3.80
2022-12-02T21:15:35.837Z,3.80
2022-12-02T21:18:02.812Z,3.80
2022-12-02T21:20:29.596Z,3.80
2022-12-02T21:22:56.484Z,3.80
2022-12-02T21:25:23.203Z,3.80
2022-12-02T21:27:50.034Z,3.80
2022-12-02T21:30:16.852Z,3.80
2022-12-02T21:32:43.644Z,3.90
2022-12-02T21:35:10.533Z,3.90
2022-12-02T21:37:37.405Z,3.90
2022-12-02T21:40:07.521Z,4.00
2022-12-02T21:42:35.555Z,3.90
2022-12-02T21:45:25.123Z,3.90
2022-12-02T21:47:57.171Z,3.90
2022-12-02T21:53:23.626Z,3.90
2022-12-02T21:55:50.523Z,3.90
2022-12-02T21:58:18.329Z,4.00
2022-12-02T22:00:47.301Z,4.00
2022-12-02T22:03:15.294Z,4.00
2022-12-02T22:05:47.118Z,4.00
2022-12-02T22:08:14.196Z,4.00
2022-12-02T22:10:43.987Z,4.10
2022-12-02T22:13:12.299Z,4.00
2022-12-02T22:15:41.518Z,4.00
2022-12-02T22:18:08.700Z,4.00
2022-12-02T22:20:35.864Z,4.00
2022-12-02T22:23:10.526Z,4.00
2022-12-02T22:25:38.426Z,4.10
2022-12-02T22:28:06.326Z,4.00
2022-12-02T22:30:37.944Z,4.00
2022-12-02T22:33:04.942Z,4.00
2022-12-02T22:35:37.448Z,4.00
2022-12-02T22:38:09.776Z,4.00
2022-12-02T22:40:38.037Z,3.90
2022-12-02T22:43:04.975Z,4.00
2022-12-02T22:45:32.266Z,4.00
2022-12-02T22:48:03.010Z,4.00
2022-12-02T22:50:30.112Z,4.00
2022-12-02T22:52:57.178Z,4.00
2022-12-02T22:55:25.071Z,4.00
2022-12-02T22:57:52.955Z,4.00
2022-12-02T23:00:19.916Z,4.00
2022-12-02T23:02:46.823Z,4.00
2022-12-02T23:05:13.740Z,4.00
2022-12-02T23:07:40.753Z,4.00
2022-12-02T23:10:07.849Z,4.00
2022-12-02T23:12:36.114Z,4.00
2022-12-02T23:15:33.923Z,4.00
2022-12-02T23:17:49.725Z,3.90
2022-12-02T23:20:19.344Z,4.00
2022-12-02T23:22:49.582Z,4.00
2022-12-02T23:25:16.819Z,3.90
2022-12-02T23:28:04.005Z,3.90
2022-12-02T23:30:33.078Z,3.80
2022-12-02T23:32:59.926Z,3.80
2022-12-02T23:35:27.340Z,3.90
2022-12-02T23:37:54.350Z,3.80
2022-12-02T23:40:22.310Z,3.80
2022-12-02T23:42:49.267Z,3.80
2022-12-02T23:45:16.157Z,3.80
2022-12-02T23:47:43.075Z,3.80
2022-12-02T23:50:10.885Z,3.80
2022-12-02T23:52:37.850Z,3.90
2022-12-02T23:55:04.856Z,3.80
2022-12-02T23:57:32.502Z,3.90
